sensor_id;sensor_type;location;lat;lon;timestamp;temperature;humidity
22568;DHT22;11450;50.818;4.382;2022-07-10T00:01:27;18.20;99.90
22568;DHT22;11450;50.818;4.382;2022-07-10T00:03:53;18.10;99.90
22568;DHT22;11450;50.818;4.382;2022-07-10T00:06:20;18.20;99.90
22568;DHT22;11450;50.818;4.382;2022-07-10T00:08:45;18.10;99.70
22568;DHT22;11450;50.818;4.382;2022-07-10T00:11:11;18.00;99.80
22568;DHT22;11450;50.818;4.382;2022-07-10T00:13:37;18.00;99.90
22568;DHT22;11450;50.818;4.382;2022-07-10T00:16:03;18.00;99.90
22568;DHT22;11450;50.818;4.382;2022-07-10T00:18:29;18.10;99.90
22568;DHT22;11450;50.818;4.382;2022-07-10T00:20:55;18.00;99.70
22568;DHT22;11450;50.818;4.382;2022-07-10T00:23:20;18.00;99.40
22568;DHT22;11450;50.818;4.382;2022-07-10T00:25:46;18.00;99.30
22568;DHT22;11450;50.818;4.382;2022-07-10T00:28:12;17.90;99.60
22568;DHT22;11450;50.818;4.382;2022-07-10T00:30:38;17.90;99.90
22568;DHT22;11450;50.818;4.382;2022-07-10T00:33:04;17.90;99.80
22568;DHT22;11450;50.818;4.382;2022-07-10T00:35:30;17.80;99.70
22568;DHT22;11450;50.818;4.382;2022-07-10T00:37:55;17.70;99.60
22568;DHT22;11450;50.818;4.382;2022-07-10T00:40:21;17.80;99.90
22568;DHT22;11450;50.818;4.382;2022-07-10T00:42:47;17.90;99.90
22568;DHT22;11450;50.818;4.382;2022-07-10T00:45:13;17.90;99.90
22568;DHT22;11450;50.818;4.382;2022-07-10T00:47:39;18.00;99.90
22568;DHT22;11450;50.818;4.382;2022-07-10T00:50:05;18.00;99.90
22568;DHT22;11450;50.818;4.382;2022-07-10T00:52:32;17.90;99.90
22568;DHT22;11450;50.818;4.382;2022-07-10T00:55:01;17.90;99.90
22568;DHT22;11450;50.818;4.382;2022-07-10T00:57:27;18.00;99.90
22568;DHT22;11450;50.818;4.382;2022-07-10T00:59:53;18.00;99.90
22568;DHT22;11450;50.818;4.382;2022-07-10T01:02:19;17.90;99.90
22568;DHT22;11450;50.818;4.382;2022-07-10T01:04:46;17.80;99.60
22568;DHT22;11450;50.818;4.382;2022-07-10T01:07:13;17.90;99.90
22568;DHT22;11450;50.818;4.382;2022-07-10T01:09:41;17.90;99.90
22568;DHT22;11450;50.818;4.382;2022-07-10T01:12:08;17.90;99.90
22568;DHT22;11450;50.818;4.382;2022-07-10T01:14:35;17.80;99.90
22568;DHT22;11450;50.818;4.382;2022-07-10T01:17:04;17.80;99.90
22568;DHT22;11450;50.818;4.382;2022-07-10T01:19:30;17.80;99.90
22568;DHT22;11450;50.818;4.382;2022-07-10T01:21:55;17.70;99.90
22568;DHT22;11450;50.818;4.382;2022-07-10T01:24:21;17.80;99.90
22568;DHT22;11450;50.818;4.382;2022-07-10T01:26:47;17.70;99.90
22568;DHT22;11450;50.818;4.382;2022-07-10T01:29:13;17.60;99.90
22568;DHT22;11450;50.818;4.382;2022-07-10T01:31:38;17.70;99.90
22568;DHT22;11450;50.818;4.382;2022-07-10T01:34:06;17.60;99.90
22568;DHT22;11450;50.818;4.382;2022-07-10T01:36:32;17.60;99.90
22568;DHT22;11450;50.818;4.382;2022-07-10T01:38:59;17.60;99.90
22568;DHT22;11450;50.818;4.382;2022-07-10T01:41:25;17.70;99.90
22568;DHT22;11450;50.818;4.382;2022-07-10T01:43:52;17.60;99.90
22568;DHT22;11450;50.818;4.382;2022-07-10T01:46:18;17.60;99.70
22568;DHT22;11450;50.818;4.382;2022-07-10T01:48:44;17.50;99.70
22568;DHT22;11450;50.818;4.382;2022-07-10T01:51:11;17.50;99.90
22568;DHT22;11450;50.818;4.382;2022-07-10T01:53:37;17.60;99.90
22568;DHT22;11450;50.818;4.382;2022-07-10T01:56:07;17.60;99.90
22568;DHT22;11450;50.818;4.382;2022-07-10T01:58:34;17.60;99.90
22568;DHT22;11450;50.818;4.382;2022-07-10T02:01:00;17.60;99.90
22568;DHT22;11450;50.818;4.382;2022-07-10T02:03:26;17.50;99.90
22568;DHT22;11450;50.818;4.382;2022-07-10T02:06:10;17.40;99.90
22568;DHT22;11450;50.818;4.382;2022-07-10T02:08:35;17.40;99.90
22568;DHT22;11450;50.818;4.382;2022-07-10T02:11:01;17.40;99.90
22568;DHT22;11450;50.818;4.382;2022-07-10T02:13:27;17.40;99.90
22568;DHT22;11450;50.818;4.382;2022-07-10T02:15:55;17.40;99.90
22568;DHT22;11450;50.818;4.382;2022-07-10T02:18:22;17.50;99.90
22568;DHT22;11450;50.818;4.382;2022-07-10T02:20:48;17.50;99.90
22568;DHT22;11450;50.818;4.382;2022-07-10T02:23:14;17.50;99.90
22568;DHT22;11450;50.818;4.382;2022-07-10T02:25:39;17.50;99.90
22568;DHT22;11450;50.818;4.382;2022-07-10T02:28:05;17.40;99.90
22568;DHT22;11450;50.818;4.382;2022-07-10T02:30:31;17.50;99.90
22568;DHT22;11450;50.818;4.382;2022-07-10T02:32:57;17.40;99.90
22568;DHT22;11450;50.818;4.382;2022-07-10T02:35:22;17.50;99.90
22568;DHT22;11450;50.818;4.382;2022-07-10T02:37:48;17.40;99.90
22568;DHT22;11450;50.818;4.382;2022-07-10T02:40:14;17.40;99.90
22568;DHT22;11450;50.818;4.382;2022-07-10T02:42:40;17.30;99.90
22568;DHT22;11450;50.818;4.382;2022-07-10T02:45:06;17.40;99.90
22568;DHT22;11450;50.818;4.382;2022-07-10T02:47:33;17.30;99.90
22568;DHT22;11450;50.818;4.382;2022-07-10T02:49:58;17.30;99.90
22568;DHT22;11450;50.818;4.382;2022-07-10T02:52:24;17.30;99.90
22568;DHT22;11450;50.818;4.382;2022-07-10T02:54:50;17.30;99.90
22568;DHT22;11450;50.818;4.382;2022-07-10T02:57:16;17.30;99.90
22568;DHT22;11450;50.818;4.382;2022-07-10T02:59:42;17.30;99.90
22568;DHT22;11450;50.818;4.382;2022-07-10T03:02:07;17.30;99.90
22568;DHT22;11450;50.818;4.382;2022-07-10T03:04:33;17.30;99.90
22568;DHT22;11450;50.818;4.382;2022-07-10T03:06:59;17.40;99.90
22568;DHT22;11450;50.818;4.382;2022-07-10T03:09:25;17.30;99.90
22568;DHT22;11450;50.818;4.382;2022-07-10T03:11:53;17.20;99.90
22568;DHT22;11450;50.818;4.382;2022-07-10T03:14:19;17.20;99.90
22568;DHT22;11450;50.818;4.382;2022-07-10T03:16:45;17.20;99.90
22568;DHT22;11450;50.818;4.382;2022-07-10T03:19:11;17.30;99.90
22568;DHT22;11450;50.818;4.382;2022-07-10T03:21:36;17.30;99.90
22568;DHT22;11450;50.818;4.382;2022-07-10T03:24:02;17.30;99.90
22568;DHT22;11450;50.818;4.382;2022-07-10T03:26:28;17.10;99.90
22568;DHT22;11450;50.818;4.382;2022-07-10T03:28:55;17.20;99.90
22568;DHT22;11450;50.818;4.382;2022-07-10T03:31:21;17.10;99.90
22568;DHT22;11450;50.818;4.382;2022-07-10T03:33:46;17.10;99.90
22568;DHT22;11450;50.818;4.382;2022-07-10T03:36:12;17.10;99.90
22568;DHT22;11450;50.818;4.382;2022-07-10T03:38:39;17.10;99.90
22568;DHT22;11450;50.818;4.382;2022-07-10T03:41:05;17.10;99.90
22568;DHT22;11450;50.818;4.382;2022-07-10T03:43:32;17.10;99.90
22568;DHT22;11450;50.818;4.382;2022-07-10T03:45:58;17.00;99.90
22568;DHT22;11450;50.818;4.382;2022-07-10T03:48:24;17.00;99.90
22568;DHT22;11450;50.818;4.382;2022-07-10T03:50:50;16.90;99.90
22568;DHT22;11450;50.818;4.382;2022-07-10T03:53:16;17.00;99.90
22568;DHT22;11450;50.818;4.382;2022-07-10T03:55:42;17.10;99.90
22568;DHT22;11450;50.818;4.382;2022-07-10T03:58:08;17.20;99.90
22568;DHT22;11450;50.818;4.382;2022-07-10T04:00:34;17.10;99.90
22568;DHT22;11450;50.818;4.382;2022-07-10T04:03:05;17.10;99.90
22568;DHT22;11450;50.818;4.382;2022-07-10T04:05:31;17.00;99.90
22568;DHT22;11450;50.818;4.382;2022-07-10T04:07:59;17.00;99.90
22568;DHT22;11450;50.818;4.382;2022-07-10T04:10:26;17.00;99.90
22568;DHT22;11450;50.818;4.382;2022-07-10T04:12:52;17.00;99.90
22568;DHT22;11450;50.818;4.382;2022-07-10T04:15:18;17.10;99.90
22568;DHT22;11450;50.818;4.382;2022-07-10T04:17:44;17.00;99.90
22568;DHT22;11450;50.818;4.382;2022-07-10T04:20:10;17.00;99.90
22568;DHT22;11450;50.818;4.382;2022-07-10T04:22:36;17.10;99.90
22568;DHT22;11450;50.818;4.382;2022-07-10T04:25:03;17.10;99.90
22568;DHT22;11450;50.818;4.382;2022-07-10T04:27:29;17.00;99.90
22568;DHT22;11450;50.818;4.382;2022-07-10T04:29:55;17.00;99.90
22568;DHT22;11450;50.818;4.382;2022-07-10T04:32:21;16.90;99.90
22568;DHT22;11450;50.818;4.382;2022-07-10T04:34:47;17.00;99.90
22568;DHT22;11450;50.818;4.382;2022-07-10T04:37:13;17.10;99.90
22568;DHT22;11450;50.818;4.382;2022-07-10T04:39:39;17.20;99.90
22568;DHT22;11450;50.818;4.382;2022-07-10T04:42:05;17.40;99.90
22568;DHT22;11450;50.818;4.382;2022-07-10T04:44:33;17.40;99.90
22568;DHT22;11450;50.818;4.382;2022-07-10T04:46:58;17.30;99.90
22568;DHT22;11450;50.818;4.382;2022-07-10T04:49:24;17.40;99.90
22568;DHT22;11450;50.818;4.382;2022-07-10T04:51:52;17.30;99.90
22568;DHT22;11450;50.818;4.382;2022-07-10T04:54:20;17.30;99.90
22568;DHT22;11450;50.818;4.382;2022-07-10T04:56:46;17.40;99.90
22568;DHT22;11450;50.818;4.382;2022-07-10T04:59:12;17.40;99.90
22568;DHT22;11450;50.818;4.382;2022-07-10T05:01:38;17.50;99.90
22568;DHT22;11450;50.818;4.382;2022-07-10T05:04:04;17.60;99.90
22568;DHT22;11450;50.818;4.382;2022-07-10T05:06:30;17.60;99.90
22568;DHT22;11450;50.818;4.382;2022-07-10T05:08:55;17.80;99.90
22568;DHT22;11450;50.818;4.382;2022-07-10T05:11:22;17.70;99.90
22568;DHT22;11450;50.818;4.382;2022-07-10T05:13:49;17.80;99.90
22568;DHT22;11450;50.818;4.382;2022-07-10T05:16:15;17.70;99.90
22568;DHT22;11450;50.818;4.382;2022-07-10T05:18:41;17.80;99.90
22568;DHT22;11450;50.818;4.382;2022-07-10T05:21:07;17.90;99.90
22568;DHT22;11450;50.818;4.382;2022-07-10T05:23:34;17.90;99.90
22568;DHT22;11450;50.818;4.382;2022-07-10T05:26:00;17.90;99.90
22568;DHT22;11450;50.818;4.382;2022-07-10T05:28:26;17.80;99.90
22568;DHT22;11450;50.818;4.382;2022-07-10T05:30:51;17.90;99.90
22568;DHT22;11450;50.818;4.382;2022-07-10T05:33:17;17.90;99.90
22568;DHT22;11450;50.818;4.382;2022-07-10T05:35:43;17.90;99.90
22568;DHT22;11450;50.818;4.382;2022-07-10T05:38:12;17.80;99.90
22568;DHT22;11450;50.818;4.382;2022-07-10T05:40:38;18.00;99.90
22568;DHT22;11450;50.818;4.382;2022-07-10T05:43:03;17.90;99.90
22568;DHT22;11450;50.818;4.382;2022-07-10T05:45:29;18.00;99.90
22568;DHT22;11450;50.818;4.382;2022-07-10T05:47:55;17.90;99.90
22568;DHT22;11450;50.818;4.382;2022-07-10T05:50:22;18.00;99.90
22568;DHT22;11450;50.818;4.382;2022-07-10T05:52:49;17.80;99.90
22568;DHT22;11450;50.818;4.382;2022-07-10T05:55:15;17.90;99.90
22568;DHT22;11450;50.818;4.382;2022-07-10T05:57:40;18.00;99.90
22568;DHT22;11450;50.818;4.382;2022-07-10T06:00:08;18.00;99.90
22568;DHT22;11450;50.818;4.382;2022-07-10T06:02:34;18.00;99.90
22568;DHT22;11450;50.818;4.382;2022-07-10T06:05:00;18.10;99.90
22568;DHT22;11450;50.818;4.382;2022-07-10T06:07:27;18.20;99.90
22568;DHT22;11450;50.818;4.382;2022-07-10T06:09:54;18.10;99.90
22568;DHT22;11450;50.818;4.382;2022-07-10T06:12:20;18.10;99.90
22568;DHT22;11450;50.818;4.382;2022-07-10T06:14:47;18.10;99.90
22568;DHT22;11450;50.818;4.382;2022-07-10T06:17:16;18.30;99.90
22568;DHT22;11450;50.818;4.382;2022-07-10T06:19:42;18.30;99.90
22568;DHT22;11450;50.818;4.382;2022-07-10T06:22:07;18.30;99.90
22568;DHT22;11450;50.818;4.382;2022-07-10T06:24:51;18.40;99.90
22568;DHT22;11450;50.818;4.382;2022-07-10T06:27:19;18.40;99.90
22568;DHT22;11450;50.818;4.382;2022-07-10T06:29:44;18.50;99.90
22568;DHT22;11450;50.818;4.382;2022-07-10T06:32:12;18.40;99.90
22568;DHT22;11450;50.818;4.382;2022-07-10T06:34:41;18.30;99.90
22568;DHT22;11450;50.818;4.382;2022-07-10T06:37:06;18.30;99.90
22568;DHT22;11450;50.818;4.382;2022-07-10T06:39:34;18.30;99.90
22568;DHT22;11450;50.818;4.382;2022-07-10T06:42:04;18.30;99.90
22568;DHT22;11450;50.818;4.382;2022-07-10T06:44:31;18.40;99.90
22568;DHT22;11450;50.818;4.382;2022-07-10T06:46:59;18.40;99.90
22568;DHT22;11450;50.818;4.382;2022-07-10T06:49:45;18.60;99.90
22568;DHT22;11450;50.818;4.382;2022-07-10T06:52:12;18.50;99.90
22568;DHT22;11450;50.818;4.382;2022-07-10T06:54:38;18.50;99.90
22568;DHT22;11450;50.818;4.382;2022-07-10T06:57:04;18.60;99.90
22568;DHT22;11450;50.818;4.382;2022-07-10T06:59:30;18.60;99.90
22568;DHT22;11450;50.818;4.382;2022-07-10T07:01:56;18.70;99.90
22568;DHT22;11450;50.818;4.382;2022-07-10T07:04:22;18.60;99.90
22568;DHT22;11450;50.818;4.382;2022-07-10T07:06:47;18.70;99.90
22568;DHT22;11450;50.818;4.382;2022-07-10T07:09:13;18.70;99.90
22568;DHT22;11450;50.818;4.382;2022-07-10T07:11:38;18.70;99.90
22568;DHT22;11450;50.818;4.382;2022-07-10T07:14:04;18.70;99.90
22568;DHT22;11450;50.818;4.382;2022-07-10T07:16:30;18.80;99.90
22568;DHT22;11450;50.818;4.382;2022-07-10T07:19:11;18.70;99.90
22568;DHT22;11450;50.818;4.382;2022-07-10T07:21:37;18.80;99.90
22568;DHT22;11450;50.818;4.382;2022-07-10T07:24:22;18.70;99.90
22568;DHT22;11450;50.818;4.382;2022-07-10T07:26:48;18.80;99.90
22568;DHT22;11450;50.818;4.382;2022-07-10T07:29:15;18.80;99.90
22568;DHT22;11450;50.818;4.382;2022-07-10T07:31:41;18.80;99.90
22568;DHT22;11450;50.818;4.382;2022-07-10T07:34:06;18.80;99.90
22568;DHT22;11450;50.818;4.382;2022-07-10T07:36:32;18.90;99.90
22568;DHT22;11450;50.818;4.382;2022-07-10T07:38:58;19.00;99.90
22568;DHT22;11450;50.818;4.382;2022-07-10T07:41:24;19.00;99.90
22568;DHT22;11450;50.818;4.382;2022-07-10T07:43:50;19.10;99.90
22568;DHT22;11450;50.818;4.382;2022-07-10T07:46:16;19.10;99.90
22568;DHT22;11450;50.818;4.382;2022-07-10T07:48:41;19.30;99.90
22568;DHT22;11450;50.818;4.382;2022-07-10T07:51:07;19.30;99.90
22568;DHT22;11450;50.818;4.382;2022-07-10T07:53:33;19.40;99.90
22568;DHT22;11450;50.818;4.382;2022-07-10T07:55:59;19.50;99.80
22568;DHT22;11450;50.818;4.382;2022-07-10T07:58:24;19.60;99.70
22568;DHT22;11450;50.818;4.382;2022-07-10T08:00:50;19.80;99.60
22568;DHT22;11450;50.818;4.382;2022-07-10T08:03:17;20.00;99.50
22568;DHT22;11450;50.818;4.382;2022-07-10T08:05:43;20.00;99.10
22568;DHT22;11450;50.818;4.382;2022-07-10T08:08:08;20.20;99.00
22568;DHT22;11450;50.818;4.382;2022-07-10T08:10:36;20.30;99.00
22568;DHT22;11450;50.818;4.382;2022-07-10T08:13:03;20.40;98.40
22568;DHT22;11450;50.818;4.382;2022-07-10T08:15:30;20.40;99.00
22568;DHT22;11450;50.818;4.382;2022-07-10T08:17:58;20.30;98.60
22568;DHT22;11450;50.818;4.382;2022-07-10T08:20:25;20.40;98.40
22568;DHT22;11450;50.818;4.382;2022-07-10T08:22:51;20.60;98.30
22568;DHT22;11450;50.818;4.382;2022-07-10T08:25:19;20.80;98.20
22568;DHT22;11450;50.818;4.382;2022-07-10T08:27:47;20.90;98.10
22568;DHT22;11450;50.818;4.382;2022-07-10T08:30:13;21.30;97.30
22568;DHT22;11450;50.818;4.382;2022-07-10T08:32:40;21.20;97.40
22568;DHT22;11450;50.818;4.382;2022-07-10T08:35:07;21.10;97.60
22568;DHT22;11450;50.818;4.382;2022-07-10T08:37:40;21.10;96.70
22568;DHT22;11450;50.818;4.382;2022-07-10T08:40:09;21.20;97.10
22568;DHT22;11450;50.818;4.382;2022-07-10T08:42:35;21.20;97.40
22568;DHT22;11450;50.818;4.382;2022-07-10T08:45:00;21.30;96.80
22568;DHT22;11450;50.818;4.382;2022-07-10T08:47:26;21.20;97.50
22568;DHT22;11450;50.818;4.382;2022-07-10T08:49:57;21.30;97.40
22568;DHT22;11450;50.818;4.382;2022-07-10T08:52:31;21.80;96.90
22568;DHT22;11450;50.818;4.382;2022-07-10T08:55:00;22.20;95.80
22568;DHT22;11450;50.818;4.382;2022-07-10T08:57:26;22.00;96.10
22568;DHT22;11450;50.818;4.382;2022-07-10T08:59:52;22.30;95.70
22568;DHT22;11450;50.818;4.382;2022-07-10T09:02:20;22.50;94.70
22568;DHT22;11450;50.818;4.382;2022-07-10T09:04:46;22.20;95.50
22568;DHT22;11450;50.818;4.382;2022-07-10T09:07:11;22.20;95.40
22568;DHT22;11450;50.818;4.382;2022-07-10T09:09:56;22.30;94.90
22568;DHT22;11450;50.818;4.382;2022-07-10T09:12:24;22.20;95.90
22568;DHT22;11450;50.818;4.382;2022-07-10T09:14:50;22.10;95.60
22568;DHT22;11450;50.818;4.382;2022-07-10T09:17:19;22.20;95.00
22568;DHT22;11450;50.818;4.382;2022-07-10T09:19:45;22.00;96.00
22568;DHT22;11450;50.818;4.382;2022-07-10T09:22:12;21.60;96.50
22568;DHT22;11450;50.818;4.382;2022-07-10T09:24:41;21.40;96.80
22568;DHT22;11450;50.818;4.382;2022-07-10T09:27:08;21.40;96.00
22568;DHT22;11450;50.818;4.382;2022-07-10T09:29:51;21.50;95.50
22568;DHT22;11450;50.818;4.382;2022-07-10T09:32:20;21.80;95.40
22568;DHT22;11450;50.818;4.382;2022-07-10T09:34:52;22.20;94.80
22568;DHT22;11450;50.818;4.382;2022-07-10T09:37:41;22.50;94.60
22568;DHT22;11450;50.818;4.382;2022-07-10T09:40:07;23.30;94.00
22568;DHT22;11450;50.818;4.382;2022-07-10T09:45:21;23.90;92.50
22568;DHT22;11450;50.818;4.382;2022-07-10T09:47:56;24.20;92.30
22568;DHT22;11450;50.818;4.382;2022-07-10T09:50:29;24.10;91.80
22568;DHT22;11450;50.818;4.382;2022-07-10T09:52:59;23.80;92.90
22568;DHT22;11450;50.818;4.382;2022-07-10T09:55:28;23.80;91.90
22568;DHT22;11450;50.818;4.382;2022-07-10T09:57:58;23.90;91.40
22568;DHT22;11450;50.818;4.382;2022-07-10T10:00:30;23.80;92.30
22568;DHT22;11450;50.818;4.382;2022-07-10T10:03:01;23.70;93.20
22568;DHT22;11450;50.818;4.382;2022-07-10T10:05:53;23.10;93.50
22568;DHT22;11450;50.818;4.382;2022-07-10T10:08:25;23.20;93.80
22568;DHT22;11450;50.818;4.382;2022-07-10T10:10:57;23.20;93.70
22568;DHT22;11450;50.818;4.382;2022-07-10T10:13:26;23.40;92.80
22568;DHT22;11450;50.818;4.382;2022-07-10T10:15:53;23.40;93.70
22568;DHT22;11450;50.818;4.382;2022-07-10T10:18:22;23.00;93.40
22568;DHT22;11450;50.818;4.382;2022-07-10T10:20:50;22.60;94.00
22568;DHT22;11450;50.818;4.382;2022-07-10T10:23:25;22.50;93.70
22568;DHT22;11450;50.818;4.382;2022-07-10T10:25:55;22.30;94.30
22568;DHT22;11450;50.818;4.382;2022-07-10T10:28:25;22.10;95.60
22568;DHT22;11450;50.818;4.382;2022-07-10T10:30:55;21.90;95.30
22568;DHT22;11450;50.818;4.382;2022-07-10T10:36:03;22.10;95.40
22568;DHT22;11450;50.818;4.382;2022-07-10T10:41:29;22.10;95.60
22568;DHT22;11450;50.818;4.382;2022-07-10T10:49:16;22.20;95.10
22568;DHT22;11450;50.818;4.382;2022-07-10T10:52:00;22.30;94.80
22568;DHT22;11450;50.818;4.382;2022-07-10T10:54:59;22.40;95.10
22568;DHT22;11450;50.818;4.382;2022-07-10T10:57:18;22.50;95.10
22568;DHT22;11450;50.818;4.382;2022-07-10T10:59:52;22.60;95.40
22568;DHT22;11450;50.818;4.382;2022-07-10T11:02:29;22.70;95.00
22568;DHT22;11450;50.818;4.382;2022-07-10T11:07:58;22.90;94.40
22568;DHT22;11450;50.818;4.382;2022-07-10T11:10:31;22.80;94.90
22568;DHT22;11450;50.818;4.382;2022-07-10T11:15:30;22.70;95.00
22568;DHT22;11450;50.818;4.382;2022-07-10T11:18:12;23.00;94.50
22568;DHT22;11450;50.818;4.382;2022-07-10T11:20:43;23.30;94.20
22568;DHT22;11450;50.818;4.382;2022-07-10T11:26:36;23.20;94.20
22568;DHT22;11450;50.818;4.382;2022-07-10T11:29:06;23.10;94.50
22568;DHT22;11450;50.818;4.382;2022-07-10T11:31:32;23.00;94.60
22568;DHT22;11450;50.818;4.382;2022-07-10T11:34:03;23.00;94.90
22568;DHT22;11450;50.818;4.382;2022-07-10T11:36:29;23.20;94.70
22568;DHT22;11450;50.818;4.382;2022-07-10T11:39:04;22.70;95.10
22568;DHT22;11450;50.818;4.382;2022-07-10T11:41:30;22.80;94.60
22568;DHT22;11450;50.818;4.382;2022-07-10T11:44:00;23.00;95.10
22568;DHT22;11450;50.818;4.382;2022-07-10T11:46:31;23.00;94.50
22568;DHT22;11450;50.818;4.382;2022-07-10T11:48:58;22.90;95.00
22568;DHT22;11450;50.818;4.382;2022-07-10T11:51:26;23.10;94.80
22568;DHT22;11450;50.818;4.382;2022-07-10T11:53:56;23.10;94.70
22568;DHT22;11450;50.818;4.382;2022-07-10T11:56:23;23.30;94.20
22568;DHT22;11450;50.818;4.382;2022-07-10T11:59:01;23.40;94.50
22568;DHT22;11450;50.818;4.382;2022-07-10T12:01:28;22.90;95.10
22568;DHT22;11450;50.818;4.382;2022-07-10T12:04:02;22.60;95.40
22568;DHT22;11450;50.818;4.382;2022-07-10T12:06:30;22.70;95.40
22568;DHT22;11450;50.818;4.382;2022-07-10T12:09:02;23.00;94.90
22568;DHT22;11450;50.818;4.382;2022-07-10T12:11:28;23.00;95.00
22568;DHT22;11450;50.818;4.382;2022-07-10T12:14:19;23.30;94.40
22568;DHT22;11450;50.818;4.382;2022-07-10T12:16:47;23.70;93.40
22568;DHT22;11450;50.818;4.382;2022-07-10T12:19:16;23.90;93.40
22568;DHT22;11450;50.818;4.382;2022-07-10T12:21:43;24.00;93.10
22568;DHT22;11450;50.818;4.382;2022-07-10T12:24:09;23.80;93.50
22568;DHT22;11450;50.818;4.382;2022-07-10T12:26:40;23.20;94.40
22568;DHT22;11450;50.818;4.382;2022-07-10T12:29:20;23.20;94.30
22568;DHT22;11450;50.818;4.382;2022-07-10T12:31:48;23.30;93.90
22568;DHT22;11450;50.818;4.382;2022-07-10T12:34:15;23.50;93.80
22568;DHT22;11450;50.818;4.382;2022-07-10T12:36:52;23.50;94.10
22568;DHT22;11450;50.818;4.382;2022-07-10T12:39:22;23.40;94.20
22568;DHT22;11450;50.818;4.382;2022-07-10T12:42:02;23.70;93.70
22568;DHT22;11450;50.818;4.382;2022-07-10T12:44:45;23.70;93.60
22568;DHT22;11450;50.818;4.382;2022-07-10T12:47:17;23.30;94.50
22568;DHT22;11450;50.818;4.382;2022-07-10T12:49:52;22.60;95.30
22568;DHT22;11450;50.818;4.382;2022-07-10T12:54:47;22.70;95.30
22568;DHT22;11450;50.818;4.382;2022-07-10T12:57:13;22.90;94.20
22568;DHT22;11450;50.818;4.382;2022-07-10T12:59:40;23.20;94.10
22568;DHT22;11450;50.818;4.382;2022-07-10T13:02:20;23.30;94.30
22568;DHT22;11450;50.818;4.382;2022-07-10T13:04:57;23.40;93.80
22568;DHT22;11450;50.818;4.382;2022-07-10T13:07:31;23.70;93.00
22568;DHT22;11450;50.818;4.382;2022-07-10T13:10:02;23.50;94.20
22568;DHT22;11450;50.818;4.382;2022-07-10T13:12:28;23.80;93.10
22568;DHT22;11450;50.818;4.382;2022-07-10T13:14:55;23.50;93.90
22568;DHT22;11450;50.818;4.382;2022-07-10T13:17:21;23.10;94.70
22568;DHT22;11450;50.818;4.382;2022-07-10T13:19:47;23.20;94.10
22568;DHT22;11450;50.818;4.382;2022-07-10T13:22:13;23.30;94.20
22568;DHT22;11450;50.818;4.382;2022-07-10T13:24:39;23.90;93.50
22568;DHT22;11450;50.818;4.382;2022-07-10T13:27:05;24.30;92.50
22568;DHT22;11450;50.818;4.382;2022-07-10T13:29:32;24.40;92.00
22568;DHT22;11450;50.818;4.382;2022-07-10T13:31:58;24.30;92.90
22568;DHT22;11450;50.818;4.382;2022-07-10T13:34:24;23.60;93.30
22568;DHT22;11450;50.818;4.382;2022-07-10T13:36:50;23.60;93.10
22568;DHT22;11450;50.818;4.382;2022-07-10T13:39:17;24.20;92.50
22568;DHT22;11450;50.818;4.382;2022-07-10T13:41:43;24.40;93.20
22568;DHT22;11450;50.818;4.382;2022-07-10T13:44:09;24.20;92.60
22568;DHT22;11450;50.818;4.382;2022-07-10T13:46:36;23.80;93.30
22568;DHT22;11450;50.818;4.382;2022-07-10T13:49:03;23.90;93.20
22568;DHT22;11450;50.818;4.382;2022-07-10T13:51:29;24.00;93.00
22568;DHT22;11450;50.818;4.382;2022-07-10T13:53:54;23.70;92.60
22568;DHT22;11450;50.818;4.382;2022-07-10T13:56:20;23.80;92.80
22568;DHT22;11450;50.818;4.382;2022-07-10T13:58:46;24.10;92.10
22568;DHT22;11450;50.818;4.382;2022-07-10T14:01:12;24.50;91.60
22568;DHT22;11450;50.818;4.382;2022-07-10T14:03:39;24.60;91.90
22568;DHT22;11450;50.818;4.382;2022-07-10T14:06:05;24.10;92.70
22568;DHT22;11450;50.818;4.382;2022-07-10T14:08:30;24.10;92.70
22568;DHT22;11450;50.818;4.382;2022-07-10T14:10:56;23.70;93.40
22568;DHT22;11450;50.818;4.382;2022-07-10T14:13:22;24.00;92.80
22568;DHT22;11450;50.818;4.382;2022-07-10T14:15:47;24.00;92.70
22568;DHT22;11450;50.818;4.382;2022-07-10T14:18:14;24.30;92.30
22568;DHT22;11450;50.818;4.382;2022-07-10T14:21:00;24.30;92.80
22568;DHT22;11450;50.818;4.382;2022-07-10T14:23:29;24.00;92.50
22568;DHT22;11450;50.818;4.382;2022-07-10T14:25:54;23.50;93.60
22568;DHT22;11450;50.818;4.382;2022-07-10T14:28:21;22.90;94.60
22568;DHT22;11450;50.818;4.382;2022-07-10T14:30:50;22.80;95.00
22568;DHT22;11450;50.818;4.382;2022-07-10T14:33:17;23.30;94.10
22568;DHT22;11450;50.818;4.382;2022-07-10T14:35:45;23.80;93.30
22568;DHT22;11450;50.818;4.382;2022-07-10T14:38:12;23.70;93.50
22568;DHT22;11450;50.818;4.382;2022-07-10T14:40:38;23.30;93.80
22568;DHT22;11450;50.818;4.382;2022-07-10T14:43:04;23.20;94.30
22568;DHT22;11450;50.818;4.382;2022-07-10T14:45:31;23.10;94.40
22568;DHT22;11450;50.818;4.382;2022-07-10T14:47:59;23.40;93.40
22568;DHT22;11450;50.818;4.382;2022-07-10T14:50:24;23.70;92.70
22568;DHT22;11450;50.818;4.382;2022-07-10T14:52:51;23.70;93.70
22568;DHT22;11450;50.818;4.382;2022-07-10T14:55:19;22.90;94.90
22568;DHT22;11450;50.818;4.382;2022-07-10T14:57:45;22.80;94.90
22568;DHT22;11450;50.818;4.382;2022-07-10T15:00:13;23.00;94.50
22568;DHT22;11450;50.818;4.382;2022-07-10T15:02:39;23.30;94.40
22568;DHT22;11450;50.818;4.382;2022-07-10T15:05:05;23.10;94.40
22568;DHT22;11450;50.818;4.382;2022-07-10T15:07:32;23.20;94.00
22568;DHT22;11450;50.818;4.382;2022-07-10T15:09:58;23.20;94.40
22568;DHT22;11450;50.818;4.382;2022-07-10T15:12:26;23.10;94.50
22568;DHT22;11450;50.818;4.382;2022-07-10T15:14:56;23.10;94.30
22568;DHT22;11450;50.818;4.382;2022-07-10T15:17:23;23.10;94.50
22568;DHT22;11450;50.818;4.382;2022-07-10T15:19:49;23.50;93.70
22568;DHT22;11450;50.818;4.382;2022-07-10T15:22:15;23.30;93.80
22568;DHT22;11450;50.818;4.382;2022-07-10T15:24:40;23.60;93.10
22568;DHT22;11450;50.818;4.382;2022-07-10T15:27:09;23.60;93.70
22568;DHT22;11450;50.818;4.382;2022-07-10T15:29:34;23.10;94.60
22568;DHT22;11450;50.818;4.382;2022-07-10T15:32:01;22.50;95.30
22568;DHT22;11450;50.818;4.382;2022-07-10T15:34:27;22.30;95.10
22568;DHT22;11450;50.818;4.382;2022-07-10T15:36:52;22.40;95.30
22568;DHT22;11450;50.818;4.382;2022-07-10T15:39:21;22.50;94.40
22568;DHT22;11450;50.818;4.382;2022-07-10T15:41:47;22.70;94.90
22568;DHT22;11450;50.818;4.382;2022-07-10T15:44:13;22.70;94.10
22568;DHT22;11450;50.818;4.382;2022-07-10T15:46:38;22.90;94.00
22568;DHT22;11450;50.818;4.382;2022-07-10T15:49:04;23.20;93.10
22568;DHT22;11450;50.818;4.382;2022-07-10T15:51:31;23.20;94.00
22568;DHT22;11450;50.818;4.382;2022-07-10T15:53:57;23.40;93.00
22568;DHT22;11450;50.818;4.382;2022-07-10T15:56:23;23.40;93.60
22568;DHT22;11450;50.818;4.382;2022-07-10T15:58:49;23.30;93.80